Terminal Aerodrome Forecast
Issued by NWS Sterling, VA

Current Version | Previous Version | Graphics & Text | Print | Product List | Glossary On
Versions: 1 2 3 4 5 6 7 8 9 10 11 12 13 14 15 16 17 18 19 20 21 22 23 24 25 26 27 28
000
FTUS41 KLWX 232100 AAA
TAFIAD
TAF AMD
KIAD 232113Z 2321/2424 15006KT P6SM BKN200
     FM240000 14008KT 6SM -RA OVC025
     FM240200 14008KT 3SM RA OVC008 WS020/17035KT
     FM240500 14012KT 2SM RA OVC008 WS020/16045KT
     FM240900 16014KT 2SM -RA OVC008 WS020/20040KT
     FM241100 19013KT 5SM BR OVC008
     FM241700 20016G26KT P6SM SCT030=

USA.gov is the U.S. government's official web portal to all federal, state and local government web resources and services.